sensor_id;sensor_type;location;lat;lon;timestamp;P1;durP1;ratioP1;P2;durP2;ratioP2
5650;SDS011;40241;52.684;9.758;2023-06-01T00:00:45;5.43;;;2.10;;
5650;SDS011;40241;52.684;9.758;2023-06-01T00:03:10;2.50;;;1.67;;
5650;SDS011;40241;52.684;9.758;2023-06-01T00:05:35;3.90;;;2.10;;
5650;SDS011;40241;52.684;9.758;2023-06-01T00:08:01;4.13;;;2.30;;
5650;SDS011;40241;52.684;9.758;2023-06-01T00:10:29;3.33;;;2.00;;
5650;SDS011;40241;52.684;9.758;2023-06-01T00:12:54;2.50;;;1.70;;
5650;SDS011;40241;52.684;9.758;2023-06-01T00:15:20;6.53;;;2.40;;
5650;SDS011;40241;52.684;9.758;2023-06-01T00:17:45;4.33;;;2.20;;
5650;SDS011;40241;52.684;9.758;2023-06-01T00:20:11;8.83;;;1.90;;
5650;SDS011;40241;52.684;9.758;2023-06-01T00:22:36;4.57;;;2.10;;
5650;SDS011;40241;52.684;9.758;2023-06-01T00:25:05;3.37;;;1.87;;
5650;SDS011;40241;52.684;9.758;2023-06-01T00:27:32;5.57;;;2.30;;
5650;SDS011;40241;52.684;9.758;2023-06-01T00:29:57;4.30;;;2.03;;
5650;SDS011;40241;52.684;9.758;2023-06-01T00:32:25;5.50;;;2.50;;
5650;SDS011;40241;52.684;9.758;2023-06-01T00:34:51;3.90;;;2.60;;
5650;SDS011;40241;52.684;9.758;2023-06-01T00:37:16;5.93;;;2.53;;
5650;SDS011;40241;52.684;9.758;2023-06-01T00:39:41;3.87;;;2.30;;
5650;SDS011;40241;52.684;9.758;2023-06-01T00:42:07;3.37;;;2.40;;
5650;SDS011;40241;52.684;9.758;2023-06-01T00:44:32;2.80;;;2.20;;
5650;SDS011;40241;52.684;9.758;2023-06-01T00:46:57;6.13;;;2.50;;
5650;SDS011;40241;52.684;9.758;2023-06-01T00:49:24;8.63;;;2.90;;
5650;SDS011;40241;52.684;9.758;2023-06-01T00:51:50;2.80;;;2.50;;
5650;SDS011;40241;52.684;9.758;2023-06-01T00:54:15;5.93;;;2.70;;
5650;SDS011;40241;52.684;9.758;2023-06-01T00:56:41;3.63;;;2.53;;
5650;SDS011;40241;52.684;9.758;2023-06-01T00:59:07;5.67;;;2.77;;
5650;SDS011;40241;52.684;9.758;2023-06-01T01:01:32;2.60;;;2.40;;
5650;SDS011;40241;52.684;9.758;2023-06-01T01:03:58;3.47;;;2.20;;
5650;SDS011;40241;52.684;9.758;2023-06-01T01:09:31;4.37;;;2.33;;
5650;SDS011;40241;52.684;9.758;2023-06-01T01:12:07;3.00;;;1.93;;
5650;SDS011;40241;52.684;9.758;2023-06-01T01:14:46;4.43;;;2.10;;
5650;SDS011;40241;52.684;9.758;2023-06-01T01:17:18;3.50;;;1.90;;
5650;SDS011;40241;52.684;9.758;2023-06-01T01:31:18;3.90;;;2.20;;
5650;SDS011;40241;52.684;9.758;2023-06-01T01:33:48;6.23;;;2.50;;
5650;SDS011;40241;52.684;9.758;2023-06-01T01:36:16;3.27;;;2.47;;
5650;SDS011;40241;52.684;9.758;2023-06-01T01:38:42;3.00;;;2.17;;
5650;SDS011;40241;52.684;9.758;2023-06-01T01:41:07;4.27;;;2.60;;
5650;SDS011;40241;52.684;9.758;2023-06-01T01:43:32;2.53;;;2.33;;
5650;SDS011;40241;52.684;9.758;2023-06-01T01:46:04;3.03;;;2.50;;
5650;SDS011;40241;52.684;9.758;2023-06-01T01:48:40;3.10;;;2.40;;
5650;SDS011;40241;52.684;9.758;2023-06-01T01:51:16;3.20;;;2.50;;
5650;SDS011;40241;52.684;9.758;2023-06-01T01:53:47;4.50;;;2.60;;
5650;SDS011;40241;52.684;9.758;2023-06-01T01:56:16;2.87;;;2.57;;
5650;SDS011;40241;52.684;9.758;2023-06-01T01:58:43;9.17;;;2.97;;
5650;SDS011;40241;52.684;9.758;2023-06-01T02:01:10;2.60;;;2.40;;
5650;SDS011;40241;52.684;9.758;2023-06-01T02:03:41;3.83;;;2.60;;
5650;SDS011;40241;52.684;9.758;2023-06-01T02:06:07;4.70;;;3.00;;
5650;SDS011;40241;52.684;9.758;2023-06-01T02:08:32;3.70;;;2.60;;
5650;SDS011;40241;52.684;9.758;2023-06-01T02:10:58;5.03;;;3.20;;
5650;SDS011;40241;52.684;9.758;2023-06-01T02:13:23;4.80;;;2.87;;
5650;SDS011;40241;52.684;9.758;2023-06-01T02:15:48;5.47;;;3.20;;
5650;SDS011;40241;52.684;9.758;2023-06-01T02:18:14;4.33;;;2.73;;
5650;SDS011;40241;52.684;9.758;2023-06-01T02:20:44;6.67;;;2.70;;
5650;SDS011;40241;52.684;9.758;2023-06-01T02:23:10;4.00;;;2.50;;
5650;SDS011;40241;52.684;9.758;2023-06-01T02:25:35;4.40;;;2.97;;
5650;SDS011;40241;52.684;9.758;2023-06-01T02:28:01;4.13;;;3.10;;
5650;SDS011;40241;52.684;9.758;2023-06-01T02:30:26;4.53;;;3.10;;
5650;SDS011;40241;52.684;9.758;2023-06-01T02:32:52;3.87;;;2.77;;
5650;SDS011;40241;52.684;9.758;2023-06-01T02:35:17;4.57;;;2.77;;
5650;SDS011;40241;52.684;9.758;2023-06-01T02:37:43;3.10;;;2.80;;
5650;SDS011;40241;52.684;9.758;2023-06-01T02:40:08;2.33;;;1.60;;
5650;SDS011;40241;52.684;9.758;2023-06-01T02:42:36;7.33;;;2.70;;
5650;SDS011;40241;52.684;9.758;2023-06-01T02:45:03;4.40;;;2.20;;
5650;SDS011;40241;52.684;9.758;2023-06-01T02:47:29;4.97;;;2.67;;
5650;SDS011;40241;52.684;9.758;2023-06-01T02:49:55;3.57;;;2.20;;
5650;SDS011;40241;52.684;9.758;2023-06-01T02:52:20;5.10;;;2.20;;
5650;SDS011;40241;52.684;9.758;2023-06-01T02:54:45;2.40;;;2.20;;
5650;SDS011;40241;52.684;9.758;2023-06-01T02:57:10;2.93;;;2.00;;
5650;SDS011;40241;52.684;9.758;2023-06-01T02:59:36;7.30;;;2.50;;
5650;SDS011;40241;52.684;9.758;2023-06-01T03:02:01;4.60;;;2.77;;
5650;SDS011;40241;52.684;9.758;2023-06-01T03:04:26;4.23;;;2.33;;
5650;SDS011;40241;52.684;9.758;2023-06-01T03:06:53;5.30;;;2.37;;
5650;SDS011;40241;52.684;9.758;2023-06-01T03:09:19;2.37;;;2.20;;
5650;SDS011;40241;52.684;9.758;2023-06-01T03:11:44;2.67;;;1.67;;
5650;SDS011;40241;52.684;9.758;2023-06-01T03:14:10;3.77;;;2.30;;
5650;SDS011;40241;52.684;9.758;2023-06-01T03:16:35;2.80;;;2.10;;
5650;SDS011;40241;52.684;9.758;2023-06-01T03:19:01;3.50;;;2.60;;
5650;SDS011;40241;52.684;9.758;2023-06-01T03:21:26;4.10;;;2.07;;
5650;SDS011;40241;52.684;9.758;2023-06-01T03:23:52;4.43;;;2.30;;
5650;SDS011;40241;52.684;9.758;2023-06-01T03:26:17;3.40;;;2.00;;
5650;SDS011;40241;52.684;9.758;2023-06-01T03:28:46;4.27;;;2.90;;
5650;SDS011;40241;52.684;9.758;2023-06-01T03:31:11;3.20;;;2.20;;
5650;SDS011;40241;52.684;9.758;2023-06-01T03:33:37;3.20;;;2.50;;
5650;SDS011;40241;52.684;9.758;2023-06-01T03:36:03;2.53;;;2.30;;
5650;SDS011;40241;52.684;9.758;2023-06-01T03:38:29;3.27;;;2.50;;
5650;SDS011;40241;52.684;9.758;2023-06-01T03:40:55;8.27;;;3.00;;
5650;SDS011;40241;52.684;9.758;2023-06-01T03:43:20;2.20;;;2.00;;
5650;SDS011;40241;52.684;9.758;2023-06-01T03:45:46;2.20;;;1.97;;
5650;SDS011;40241;52.684;9.758;2023-06-01T03:48:11;3.87;;;2.40;;
5650;SDS011;40241;52.684;9.758;2023-06-01T03:50:36;3.50;;;2.50;;
5650;SDS011;40241;52.684;9.758;2023-06-01T03:53:02;3.20;;;2.70;;
5650;SDS011;40241;52.684;9.758;2023-06-01T03:55:27;3.37;;;2.50;;
5650;SDS011;40241;52.684;9.758;2023-06-01T03:57:54;7.97;;;2.23;;
5650;SDS011;40241;52.684;9.758;2023-06-01T04:00:20;2.73;;;2.07;;
5650;SDS011;40241;52.684;9.758;2023-06-01T04:02:55;6.60;;;2.90;;
5650;SDS011;40241;52.684;9.758;2023-06-01T04:05:22;4.27;;;2.20;;
5650;SDS011;40241;52.684;9.758;2023-06-01T04:07:51;3.53;;;2.50;;
5650;SDS011;40241;52.684;9.758;2023-06-01T04:10:17;2.13;;;1.93;;
5650;SDS011;40241;52.684;9.758;2023-06-01T04:12:43;3.47;;;2.13;;
5650;SDS011;40241;52.684;9.758;2023-06-01T04:15:10;3.77;;;2.10;;
5650;SDS011;40241;52.684;9.758;2023-06-01T04:17:37;3.03;;;1.90;;
5650;SDS011;40241;52.684;9.758;2023-06-01T04:20:03;3.43;;;2.10;;
5650;SDS011;40241;52.684;9.758;2023-06-01T04:22:31;3.30;;;1.83;;
5650;SDS011;40241;52.684;9.758;2023-06-01T04:24:59;3.30;;;1.50;;
5650;SDS011;40241;52.684;9.758;2023-06-01T04:27:25;1.80;;;1.70;;
5650;SDS011;40241;52.684;9.758;2023-06-01T04:29:51;3.77;;;1.93;;
5650;SDS011;40241;52.684;9.758;2023-06-01T04:32:18;3.23;;;2.17;;
5650;SDS011;40241;52.684;9.758;2023-06-01T04:34:46;3.83;;;2.10;;
5650;SDS011;40241;52.684;9.758;2023-06-01T04:37:14;3.70;;;1.77;;
5650;SDS011;40241;52.684;9.758;2023-06-01T04:39:48;2.73;;;1.70;;
5650;SDS011;40241;52.684;9.758;2023-06-01T04:42:15;4.00;;;2.40;;
5650;SDS011;40241;52.684;9.758;2023-06-01T04:44:42;2.77;;;1.83;;
5650;SDS011;40241;52.684;9.758;2023-06-01T04:47:08;1.90;;;1.80;;
5650;SDS011;40241;52.684;9.758;2023-06-01T04:49:34;3.63;;;1.80;;
5650;SDS011;40241;52.684;9.758;2023-06-01T04:52:01;4.70;;;2.00;;
5650;SDS011;40241;52.684;9.758;2023-06-01T04:54:27;3.33;;;1.80;;
5650;SDS011;40241;52.684;9.758;2023-06-01T04:56:52;2.70;;;1.87;;
5650;SDS011;40241;52.684;9.758;2023-06-01T04:59:18;3.60;;;2.20;;
5650;SDS011;40241;52.684;9.758;2023-06-01T05:01:43;2.90;;;1.90;;
5650;SDS011;40241;52.684;9.758;2023-06-01T05:04:08;2.83;;;2.10;;
5650;SDS011;40241;52.684;9.758;2023-06-01T05:06:34;5.97;;;2.07;;
5650;SDS011;40241;52.684;9.758;2023-06-01T05:08:59;3.80;;;2.00;;
5650;SDS011;40241;52.684;9.758;2023-06-01T05:11:24;2.63;;;1.97;;
5650;SDS011;40241;52.684;9.758;2023-06-01T05:13:50;3.77;;;1.93;;
5650;SDS011;40241;52.684;9.758;2023-06-01T05:16:17;2.23;;;1.70;;
5650;SDS011;40241;52.684;9.758;2023-06-01T05:18:43;3.90;;;2.13;;
5650;SDS011;40241;52.684;9.758;2023-06-01T05:21:08;5.83;;;2.50;;
5650;SDS011;40241;52.684;9.758;2023-06-01T05:23:33;3.87;;;1.77;;
5650;SDS011;40241;52.684;9.758;2023-06-01T05:25:59;5.23;;;2.03;;
5650;SDS011;40241;52.684;9.758;2023-06-01T05:28:30;3.80;;;1.80;;
5650;SDS011;40241;52.684;9.758;2023-06-01T05:30:56;5.10;;;2.10;;
5650;SDS011;40241;52.684;9.758;2023-06-01T05:33:22;2.80;;;2.30;;
5650;SDS011;40241;52.684;9.758;2023-06-01T05:35:47;4.63;;;1.80;;
5650;SDS011;40241;52.684;9.758;2023-06-01T05:38:13;3.20;;;2.47;;
5650;SDS011;40241;52.684;9.758;2023-06-01T05:40:38;6.87;;;2.20;;
5650;SDS011;40241;52.684;9.758;2023-06-01T05:43:03;2.90;;;2.20;;
5650;SDS011;40241;52.684;9.758;2023-06-01T05:45:29;4.57;;;2.43;;
5650;SDS011;40241;52.684;9.758;2023-06-01T05:47:54;5.27;;;2.40;;
5650;SDS011;40241;52.684;9.758;2023-06-01T05:50:20;3.47;;;1.90;;
5650;SDS011;40241;52.684;9.758;2023-06-01T05:52:45;2.33;;;2.03;;
5650;SDS011;40241;52.684;9.758;2023-06-01T05:55:10;3.73;;;2.40;;
5650;SDS011;40241;52.684;9.758;2023-06-01T05:57:36;1.90;;;1.80;;
5650;SDS011;40241;52.684;9.758;2023-06-01T06:00:01;3.27;;;1.50;;
5650;SDS011;40241;52.684;9.758;2023-06-01T06:02:28;5.40;;;2.37;;
5650;SDS011;40241;52.684;9.758;2023-06-01T06:04:53;3.33;;;2.30;;
5650;SDS011;40241;52.684;9.758;2023-06-01T06:07:19;4.20;;;2.50;;
5650;SDS011;40241;52.684;9.758;2023-06-01T06:09:44;3.17;;;2.17;;
5650;SDS011;40241;52.684;9.758;2023-06-01T06:12:10;4.63;;;2.20;;
5650;SDS011;40241;52.684;9.758;2023-06-01T06:14:35;1.90;;;1.70;;
5650;SDS011;40241;52.684;9.758;2023-06-01T06:17:01;5.23;;;2.97;;
5650;SDS011;40241;52.684;9.758;2023-06-01T06:19:27;4.07;;;2.60;;
5650;SDS011;40241;52.684;9.758;2023-06-01T06:21:53;5.17;;;2.67;;
5650;SDS011;40241;52.684;9.758;2023-06-01T06:24:18;5.17;;;2.60;;
5650;SDS011;40241;52.684;9.758;2023-06-01T06:26:43;3.30;;;2.60;;
5650;SDS011;40241;52.684;9.758;2023-06-01T06:29:08;10.47;;;3.77;;
5650;SDS011;40241;52.684;9.758;2023-06-01T06:31:34;4.47;;;3.30;;
5650;SDS011;40241;52.684;9.758;2023-06-01T06:33:59;5.80;;;3.33;;
5650;SDS011;40241;52.684;9.758;2023-06-01T06:36:25;5.13;;;2.70;;
5650;SDS011;40241;52.684;9.758;2023-06-01T06:38:51;7.63;;;3.20;;
5650;SDS011;40241;52.684;9.758;2023-06-01T06:41:16;6.77;;;3.20;;
5650;SDS011;40241;52.684;9.758;2023-06-01T06:43:41;3.13;;;2.93;;
5650;SDS011;40241;52.684;9.758;2023-06-01T06:46:07;5.27;;;2.90;;
5650;SDS011;40241;52.684;9.758;2023-06-01T06:48:32;8.50;;;2.87;;
5650;SDS011;40241;52.684;9.758;2023-06-01T06:50:58;5.03;;;3.00;;
5650;SDS011;40241;52.684;9.758;2023-06-01T06:53:23;5.13;;;3.23;;
5650;SDS011;40241;52.684;9.758;2023-06-01T06:55:48;2.47;;;2.27;;
5650;SDS011;40241;52.684;9.758;2023-06-01T06:58:14;4.87;;;2.93;;
5650;SDS011;40241;52.684;9.758;2023-06-01T07:00:39;5.57;;;2.73;;
5650;SDS011;40241;52.684;9.758;2023-06-01T07:03:06;6.73;;;2.67;;
5650;SDS011;40241;52.684;9.758;2023-06-01T07:05:31;4.27;;;2.77;;
5650;SDS011;40241;52.684;9.758;2023-06-01T07:07:57;3.63;;;2.60;;
5650;SDS011;40241;52.684;9.758;2023-06-01T07:10:22;4.50;;;2.80;;
5650;SDS011;40241;52.684;9.758;2023-06-01T07:12:47;3.17;;;2.60;;
5650;SDS011;40241;52.684;9.758;2023-06-01T07:15:13;5.70;;;2.50;;
5650;SDS011;40241;52.684;9.758;2023-06-01T07:17:38;6.60;;;2.73;;
5650;SDS011;40241;52.684;9.758;2023-06-01T07:20:04;4.50;;;2.90;;
5650;SDS011;40241;52.684;9.758;2023-06-01T07:22:32;2.83;;;2.37;;
5650;SDS011;40241;52.684;9.758;2023-06-01T07:24:58;3.80;;;2.53;;
5650;SDS011;40241;52.684;9.758;2023-06-01T07:27:24;2.83;;;2.43;;
5650;SDS011;40241;52.684;9.758;2023-06-01T07:29:49;5.60;;;2.83;;
5650;SDS011;40241;52.684;9.758;2023-06-01T07:32:20;5.17;;;2.70;;
5650;SDS011;40241;52.684;9.758;2023-06-01T07:34:46;4.93;;;2.97;;
5650;SDS011;40241;52.684;9.758;2023-06-01T07:37:11;5.03;;;2.80;;
5650;SDS011;40241;52.684;9.758;2023-06-01T07:39:37;5.60;;;3.33;;
5650;SDS011;40241;52.684;9.758;2023-06-01T07:42:02;3.97;;;2.90;;
5650;SDS011;40241;52.684;9.758;2023-06-01T07:44:27;5.93;;;3.00;;
5650;SDS011;40241;52.684;9.758;2023-06-01T07:46:53;4.30;;;2.60;;
5650;SDS011;40241;52.684;9.758;2023-06-01T07:49:18;3.10;;;2.80;;
5650;SDS011;40241;52.684;9.758;2023-06-01T07:51:43;4.47;;;2.83;;
5650;SDS011;40241;52.684;9.758;2023-06-01T07:54:09;4.20;;;2.70;;
5650;SDS011;40241;52.684;9.758;2023-06-01T07:56:35;3.10;;;2.60;;
5650;SDS011;40241;52.684;9.758;2023-06-01T07:59:01;3.70;;;2.47;;
5650;SDS011;40241;52.684;9.758;2023-06-01T08:01:26;5.17;;;2.53;;
5650;SDS011;40241;52.684;9.758;2023-06-01T08:03:52;2.53;;;2.33;;
5650;SDS011;40241;52.684;9.758;2023-06-01T08:06:18;5.50;;;2.73;;
5650;SDS011;40241;52.684;9.758;2023-06-01T08:08:43;6.13;;;3.33;;
5650;SDS011;40241;52.684;9.758;2023-06-01T08:11:10;3.43;;;2.30;;
5650;SDS011;40241;52.684;9.758;2023-06-01T08:13:36;4.40;;;2.60;;
5650;SDS011;40241;52.684;9.758;2023-06-01T08:16:02;3.13;;;2.50;;
5650;SDS011;40241;52.684;9.758;2023-06-01T08:18:28;5.17;;;2.40;;
5650;SDS011;40241;52.684;9.758;2023-06-01T08:20:54;6.33;;;2.57;;
5650;SDS011;40241;52.684;9.758;2023-06-01T08:23:20;3.17;;;2.40;;
5650;SDS011;40241;52.684;9.758;2023-06-01T08:25:47;6.83;;;2.30;;
5650;SDS011;40241;52.684;9.758;2023-06-01T08:28:13;3.00;;;1.83;;
5650;SDS011;40241;52.684;9.758;2023-06-01T08:30:38;2.83;;;1.70;;
5650;SDS011;40241;52.684;9.758;2023-06-01T08:33:04;3.43;;;1.90;;
5650;SDS011;40241;52.684;9.758;2023-06-01T08:35:29;2.33;;;1.93;;
5650;SDS011;40241;52.684;9.758;2023-06-01T08:38:00;1.70;;;1.60;;
5650;SDS011;40241;52.684;9.758;2023-06-01T08:40:26;1.90;;;1.80;;
5650;SDS011;40241;52.684;9.758;2023-06-01T08:42:57;4.87;;;1.73;;
5650;SDS011;40241;52.684;9.758;2023-06-01T08:45:24;2.03;;;1.70;;
5650;SDS011;40241;52.684;9.758;2023-06-01T08:47:52;5.50;;;2.13;;
5650;SDS011;40241;52.684;9.758;2023-06-01T08:50:19;4.40;;;2.20;;
5650;SDS011;40241;52.684;9.758;2023-06-01T08:52:45;2.73;;;2.40;;
5650;SDS011;40241;52.684;9.758;2023-06-01T08:55:11;3.63;;;2.07;;
5650;SDS011;40241;52.684;9.758;2023-06-01T08:57:40;2.67;;;2.20;;
5650;SDS011;40241;52.684;9.758;2023-06-01T09:00:08;1.90;;;1.80;;
5650;SDS011;40241;52.684;9.758;2023-06-01T09:02:35;6.40;;;2.40;;
5650;SDS011;40241;52.684;9.758;2023-06-01T09:05:01;2.80;;;2.23;;
5650;SDS011;40241;52.684;9.758;2023-06-01T09:07:26;2.00;;;1.90;;
5650;SDS011;40241;52.684;9.758;2023-06-01T09:09:52;4.90;;;1.90;;
5650;SDS011;40241;52.684;9.758;2023-06-01T09:12:28;2.47;;;2.27;;
5650;SDS011;40241;52.684;9.758;2023-06-01T09:15:07;2.30;;;2.20;;
5650;SDS011;40241;52.684;9.758;2023-06-01T09:17:36;2.70;;;2.50;;
5650;SDS011;40241;52.684;9.758;2023-06-01T09:20:02;4.67;;;2.43;;
5650;SDS011;40241;52.684;9.758;2023-06-01T09:22:42;4.13;;;2.37;;
5650;SDS011;40241;52.684;9.758;2023-06-01T09:25:09;5.07;;;2.30;;
5650;SDS011;40241;52.684;9.758;2023-06-01T09:27:41;3.13;;;2.13;;
5650;SDS011;40241;52.684;9.758;2023-06-01T09:30:10;5.73;;;2.10;;
5650;SDS011;40241;52.684;9.758;2023-06-01T09:32:36;2.43;;;1.90;;
5650;SDS011;40241;52.684;9.758;2023-06-01T09:35:01;2.87;;;1.80;;
5650;SDS011;40241;52.684;9.758;2023-06-01T09:37:28;2.47;;;1.80;;
5650;SDS011;40241;52.684;9.758;2023-06-01T09:39:53;2.17;;;2.00;;
5650;SDS011;40241;52.684;9.758;2023-06-01T09:42:22;2.03;;;1.83;;
5650;SDS011;40241;52.684;9.758;2023-06-01T09:44:56;2.60;;;1.70;;
5650;SDS011;40241;52.684;9.758;2023-06-01T09:47:39;1.83;;;1.50;;
5650;SDS011;40241;52.684;9.758;2023-06-01T09:50:04;1.73;;;1.60;;
5650;SDS011;40241;52.684;9.758;2023-06-01T09:52:30;2.23;;;1.93;;
5650;SDS011;40241;52.684;9.758;2023-06-01T09:54:55;3.20;;;1.87;;
5650;SDS011;40241;52.684;9.758;2023-06-01T09:57:30;2.50;;;1.60;;
5650;SDS011;40241;52.684;9.758;2023-06-01T09:59:56;1.43;;;1.03;;
5650;SDS011;40241;52.684;9.758;2023-06-01T10:02:22;1.47;;;1.37;;
5650;SDS011;40241;52.684;9.758;2023-06-01T10:04:57;1.93;;;1.60;;
5650;SDS011;40241;52.684;9.758;2023-06-01T10:07:24;3.10;;;1.53;;
5650;SDS011;40241;52.684;9.758;2023-06-01T10:09:52;3.97;;;1.73;;
5650;SDS011;40241;52.684;9.758;2023-06-01T10:12:21;1.70;;;1.40;;
5650;SDS011;40241;52.684;9.758;2023-06-01T10:14:47;2.27;;;1.40;;
5650;SDS011;40241;52.684;9.758;2023-06-01T10:17:14;1.80;;;1.37;;
5650;SDS011;40241;52.684;9.758;2023-06-01T10:19:41;1.70;;;1.57;;
5650;SDS011;40241;52.684;9.758;2023-06-01T10:22:07;4.10;;;1.30;;
5650;SDS011;40241;52.684;9.758;2023-06-01T10:24:35;4.23;;;1.80;;
5650;SDS011;40241;52.684;9.758;2023-06-01T10:29:40;2.30;;;2.07;;
5650;SDS011;40241;52.684;9.758;2023-06-01T10:32:52;1.87;;;1.40;;
5650;SDS011;40241;52.684;9.758;2023-06-01T10:35:50;1.90;;;1.70;;
5650;SDS011;40241;52.684;9.758;2023-06-01T10:40:33;2.13;;;1.90;;
5650;SDS011;40241;52.684;9.758;2023-06-01T10:42:59;2.20;;;1.67;;
5650;SDS011;40241;52.684;9.758;2023-06-01T10:47:59;1.87;;;1.50;;
5650;SDS011;40241;52.684;9.758;2023-06-01T10:50:25;1.70;;;1.60;;
5650;SDS011;40241;52.684;9.758;2023-06-01T10:52:52;2.57;;;1.57;;
5650;SDS011;40241;52.684;9.758;2023-06-01T10:55:19;2.40;;;2.20;;
5650;SDS011;40241;52.684;9.758;2023-06-01T10:57:49;2.50;;;1.90;;
5650;SDS011;40241;52.684;9.758;2023-06-01T11:02:54;3.30;;;2.03;;
5650;SDS011;40241;52.684;9.758;2023-06-01T11:13:15;5.67;;;2.20;;
5650;SDS011;40241;52.684;9.758;2023-06-01T11:23:55;3.10;;;2.20;;
5650;SDS011;40241;52.684;9.758;2023-06-01T11:26:23;2.10;;;1.90;;
5650;SDS011;40241;52.684;9.758;2023-06-01T11:29:03;6.00;;;2.40;;
5650;SDS011;40241;52.684;9.758;2023-06-01T11:31:33;3.20;;;1.93;;
5650;SDS011;40241;52.684;9.758;2023-06-01T11:34:03;4.10;;;2.30;;
5650;SDS011;40241;52.684;9.758;2023-06-01T11:36:29;2.10;;;1.90;;
5650;SDS011;40241;52.684;9.758;2023-06-01T11:38:54;2.93;;;2.17;;
5650;SDS011;40241;52.684;9.758;2023-06-01T11:41:21;2.80;;;2.43;;
5650;SDS011;40241;52.684;9.758;2023-06-01T11:43:53;5.93;;;2.10;;
5650;SDS011;40241;52.684;9.758;2023-06-01T11:46:20;2.80;;;2.00;;
5650;SDS011;40241;52.684;9.758;2023-06-01T11:48:57;1.83;;;1.73;;
5650;SDS011;40241;52.684;9.758;2023-06-01T11:51:30;2.60;;;1.90;;
5650;SDS011;40241;52.684;9.758;2023-06-01T11:53:56;2.47;;;1.80;;
5650;SDS011;40241;52.684;9.758;2023-06-01T11:56:29;4.57;;;1.90;;
5650;SDS011;40241;52.684;9.758;2023-06-01T11:59:02;2.20;;;2.00;;
5650;SDS011;40241;52.684;9.758;2023-06-01T12:01:36;2.23;;;1.70;;
5650;SDS011;40241;52.684;9.758;2023-06-01T12:04:11;2.50;;;2.10;;
5650;SDS011;40241;52.684;9.758;2023-06-01T12:06:40;4.03;;;1.83;;
5650;SDS011;40241;52.684;9.758;2023-06-01T12:09:06;3.83;;;2.10;;
5650;SDS011;40241;52.684;9.758;2023-06-01T12:11:32;2.20;;;1.93;;
5650;SDS011;40241;52.684;9.758;2023-06-01T12:13:59;2.23;;;2.10;;
5650;SDS011;40241;52.684;9.758;2023-06-01T12:16:25;1.80;;;1.70;;
5650;SDS011;40241;52.684;9.758;2023-06-01T12:19:13;2.30;;;2.10;;
5650;SDS011;40241;52.684;9.758;2023-06-01T12:21:38;2.50;;;2.30;;
5650;SDS011;40241;52.684;9.758;2023-06-01T12:24:04;3.30;;;2.17;;
5650;SDS011;40241;52.684;9.758;2023-06-01T12:26:35;2.50;;;1.73;;
5650;SDS011;40241;52.684;9.758;2023-06-01T12:29:02;4.00;;;2.03;;
5650;SDS011;40241;52.684;9.758;2023-06-01T12:31:27;3.50;;;1.77;;
5650;SDS011;40241;52.684;9.758;2023-06-01T12:33:52;1.67;;;1.57;;
5650;SDS011;40241;52.684;9.758;2023-06-01T12:36:28;3.10;;;1.70;;
5650;SDS011;40241;52.684;9.758;2023-06-01T12:38:58;2.10;;;1.90;;
5650;SDS011;40241;52.684;9.758;2023-06-01T12:41:24;2.07;;;1.87;;
5650;SDS011;40241;52.684;9.758;2023-06-01T12:43:50;2.20;;;1.50;;
5650;SDS011;40241;52.684;9.758;2023-06-01T12:46:19;1.83;;;1.50;;
5650;SDS011;40241;52.684;9.758;2023-06-01T12:48:48;3.13;;;1.67;;
5650;SDS011;40241;52.684;9.758;2023-06-01T12:51:14;2.83;;;1.50;;
5650;SDS011;40241;52.684;9.758;2023-06-01T12:53:40;4.53;;;1.97;;
5650;SDS011;40241;52.684;9.758;2023-06-01T12:56:10;1.67;;;1.57;;
5650;SDS011;40241;52.684;9.758;2023-06-01T12:58:37;4.40;;;1.73;;
5650;SDS011;40241;52.684;9.758;2023-06-01T13:01:03;1.97;;;1.70;;
5650;SDS011;40241;52.684;9.758;2023-06-01T13:03:28;1.80;;;1.47;;
5650;SDS011;40241;52.684;9.758;2023-06-01T13:05:54;2.50;;;1.50;;
5650;SDS011;40241;52.684;9.758;2023-06-01T13:08:20;4.47;;;1.83;;
5650;SDS011;40241;52.684;9.758;2023-06-01T13:10:46;1.83;;;1.70;;
5650;SDS011;40241;52.684;9.758;2023-06-01T13:13:11;3.93;;;1.60;;
5650;SDS011;40241;52.684;9.758;2023-06-01T13:15:44;4.30;;;1.83;;
5650;SDS011;40241;52.684;9.758;2023-06-01T13:18:10;4.10;;;1.97;;
5650;SDS011;40241;52.684;9.758;2023-06-01T13:20:36;4.20;;;1.90;;
5650;SDS011;40241;52.684;9.758;2023-06-01T13:23:04;2.40;;;1.50;;
5650;SDS011;40241;52.684;9.758;2023-06-01T13:25:29;3.27;;;1.60;;
5650;SDS011;40241;52.684;9.758;2023-06-01T13:27:55;3.90;;;1.43;;
5650;SDS011;40241;52.684;9.758;2023-06-01T13:30:21;3.63;;;1.43;;
5650;SDS011;40241;52.684;9.758;2023-06-01T13:32:47;3.10;;;1.50;;
5650;SDS011;40241;52.684;9.758;2023-06-01T13:35:12;5.70;;;2.30;;
5650;SDS011;40241;52.684;9.758;2023-06-01T13:37:38;3.37;;;1.90;;
5650;SDS011;40241;52.684;9.758;2023-06-01T13:40:04;2.80;;;1.57;;
5650;SDS011;40241;52.684;9.758;2023-06-01T13:42:32;1.60;;;1.50;;
5650;SDS011;40241;52.684;9.758;2023-06-01T13:44:58;4.13;;;1.60;;
5650;SDS011;40241;52.684;9.758;2023-06-01T13:47:24;3.57;;;1.50;;
5650;SDS011;40241;52.684;9.758;2023-06-01T13:49:50;2.70;;;1.80;;
5650;SDS011;40241;52.684;9.758;2023-06-01T13:52:16;2.93;;;1.37;;
5650;SDS011;40241;52.684;9.758;2023-06-01T13:54:41;3.40;;;2.07;;
5650;SDS011;40241;52.684;9.758;2023-06-01T13:57:06;3.00;;;1.70;;
5650;SDS011;40241;52.684;9.758;2023-06-01T13:59:32;2.13;;;1.60;;
5650;SDS011;40241;52.684;9.758;2023-06-01T14:02:00;6.90;;;2.10;;
5650;SDS011;40241;52.684;9.758;2023-06-01T14:04:25;3.07;;;2.03;;
5650;SDS011;40241;52.684;9.758;2023-06-01T14:06:51;2.80;;;2.00;;
5650;SDS011;40241;52.684;9.758;2023-06-01T14:09:16;3.53;;;2.00;;
5650;SDS011;40241;52.684;9.758;2023-06-01T14:11:42;3.50;;;1.90;;
5650;SDS011;40241;52.684;9.758;2023-06-01T14:14:07;5.60;;;2.40;;
5650;SDS011;40241;52.684;9.758;2023-06-01T14:16:33;5.20;;;1.70;;
5650;SDS011;40241;52.684;9.758;2023-06-01T14:18:58;3.13;;;1.73;;
5650;SDS011;40241;52.684;9.758;2023-06-01T14:21:24;2.67;;;1.73;;
5650;SDS011;40241;52.684;9.758;2023-06-01T14:23:49;2.63;;;1.60;;
5650;SDS011;40241;52.684;9.758;2023-06-01T14:26:15;2.40;;;1.70;;
5650;SDS011;40241;52.684;9.758;2023-06-01T14:28:40;1.80;;;1.53;;
5650;SDS011;40241;52.684;9.758;2023-06-01T14:31:05;3.13;;;1.80;;
5650;SDS011;40241;52.684;9.758;2023-06-01T14:33:31;3.40;;;2.20;;
5650;SDS011;40241;52.684;9.758;2023-06-01T14:35:56;3.87;;;1.90;;
5650;SDS011;40241;52.684;9.758;2023-06-01T14:38:21;2.83;;;1.77;;
5650;SDS011;40241;52.684;9.758;2023-06-01T14:40:47;2.30;;;1.70;;
5650;SDS011;40241;52.684;9.758;2023-06-01T14:43:12;5.53;;;1.87;;
5650;SDS011;40241;52.684;9.758;2023-06-01T14:45:37;4.30;;;1.57;;
5650;SDS011;40241;52.684;9.758;2023-06-01T14:48:03;1.73;;;1.37;;
5650;SDS011;40241;52.684;9.758;2023-06-01T14:50:28;6.03;;;2.00;;
5650;SDS011;40241;52.684;9.758;2023-06-01T14:52:53;5.97;;;2.13;;
5650;SDS011;40241;52.684;9.758;2023-06-01T14:55:24;5.77;;;1.90;;
5650;SDS011;40241;52.684;9.758;2023-06-01T14:57:50;2.60;;;2.10;;
5650;SDS011;40241;52.684;9.758;2023-06-01T15:00:16;2.10;;;1.80;;
5650;SDS011;40241;52.684;9.758;2023-06-01T15:02:42;4.67;;;1.83;;
5650;SDS011;40241;52.684;9.758;2023-06-01T15:05:07;3.73;;;1.67;;
5650;SDS011;40241;52.684;9.758;2023-06-01T15:07:32;4.50;;;2.00;;
5650;SDS011;40241;52.684;9.758;2023-06-01T15:09:58;3.93;;;1.57;;
5650;SDS011;40241;52.684;9.758;2023-06-01T15:12:23;4.87;;;2.10;;
5650;SDS011;40241;52.684;9.758;2023-06-01T15:14:48;3.97;;;1.90;;
5650;SDS011;40241;52.684;9.758;2023-06-01T15:17:16;3.57;;;1.80;;
5650;SDS011;40241;52.684;9.758;2023-06-01T15:19:41;2.87;;;1.90;;
5650;SDS011;40241;52.684;9.758;2023-06-01T15:22:06;6.10;;;2.27;;
5650;SDS011;40241;52.684;9.758;2023-06-01T15:24:32;2.50;;;1.90;;
5650;SDS011;40241;52.684;9.758;2023-06-01T15:26:57;3.27;;;1.47;;
5650;SDS011;40241;52.684;9.758;2023-06-01T15:29:22;2.90;;;1.63;;
5650;SDS011;40241;52.684;9.758;2023-06-01T15:31:48;4.00;;;1.80;;
5650;SDS011;40241;52.684;9.758;2023-06-01T15:34:13;3.17;;;2.00;;
5650;SDS011;40241;52.684;9.758;2023-06-01T15:36:38;4.40;;;1.57;;
5650;SDS011;40241;52.684;9.758;2023-06-01T15:39:04;2.97;;;1.80;;